Airfield :
LOGIN :

Register | Disclaimer

   EN    FR    IT 

 










Legend :    VFR   Marginal VFR   IFR   Intensive IFR   Very Intensive IFR
Visi :
Ceiling :
>= 8 km
>= 3000ft
5 to 8 km
1000 to 3000 ft
1500m to 5 km
500 to 1000 ft
800 to 1500m
200 to 500 ft
< 800m
< 200 ft
Symbols :   Thunderstorms  Fog  Heavy snow  Heavy precipitations  Wind > 20 kt
SIGMETs :     Misc.  Thunderstorms  Icing  Turbulence  Mountain Waves  Volcanic Ashes







- Airport Elevation : 1568 ft


ETSB - Büchel AB

CURRENT METAR :
  • 101220Z 29010KT 9999 FEW007 BKN030 04/M00 Q1020 BLU BLU TEMPO GRN

EXPIRED METARs :
  • 101120Z 28008KT 9999 FEW007 BKN020 BKN050 04/00 Q1021 WHT BLU TEMPO GRN
  • 101020Z 28011KT 9999 FEW007 SCT020 BKN050 03/00 Q1021 BLU BLU TEMPO GRN

TAF TAF ETSB
Valid from the 10 at 12:00 until the 10 at 21:00 UTC


101120Z 1012/1021 28008KT 9999 NSW FEW010 BKN030
TEMPO 1012/1018 29010G20KT 4000 SHRASN SCT007 BKN012CB BY ETGL
No reported NOTAMs for that airfield.



MET'MAP, your aeronautical weather chart ! - Copyright ORBIFLY December 2007 - Disclaimer

ORBIFLY MET'MAP TEAM :

Programming & Development : Alexandra Zaïnal
Concept & Development : Baudouin d'Aumeries
Co-Development & Prog : Marc-Olivier Méhu
Technical & hardware support : Manuel Goepfert

Contact : metmap@orbifly.com




SOURCES & CREDITS :

   NOAA